KSFF/SFF METAR and TAF weather

Enter ICAO airport designator
Station Type Date Time Source
KSFF METAR 2021/05/14 12:53 UTC NOAA

KSFF 141253Z 05003KT 10SM CLR 08/05 A3008 RMK AO2 SLP180 T00780050


Station Type Date Time Source
KSFF Decoded METAR 2021/05/14 12:53 UTC NOAA

FELTS FIELD, WA, United States (KSFF) 47-41N 117-19W 609M
May 14, 2021 - 08:53 AM EDT / 2021.05.14 1253 UTC
Wind: from the NE (050 degrees) at 3 MPH (3 KT):0
Visibility: 10 mile(s):0
Sky conditions: clear
Temperature: 46.0 F (7.8 C)
Dew Point: 41.0 F (5.0 C)
Relative Humidity: 82%
Pressure (altimeter): 30.08 in. Hg (1018 hPa)
ob: KSFF 141253Z 05003KT 10SM CLR 08/05 A3008 RMK AO2 SLP180 T00780050
cycle: 13

Station Type Date Time Source
KSFF TAF 2021/05/14 12:30 UTC NOAA

TAF KSFF 141128Z 1412/1512 00000KT P6SM SKC
FM150800 00000KT P6SM FEW100

Example: see airport list